Milford, Utah
Current Conditions -  °F | °C
As of 4:52 PM on Thursday 18 Dec 2014 (Local Time) from KMLF Reporting Station
Clear Clear  
Wind Chill: 43°   Ceiling: Unl
Heat Index: 43°   Visibility: 10mi
Dew Point: 27°   Wind: 3mph
Humidity: 53%   Direction: 220°SW
Pressure: 30.12"   Gusts: NA
Location:  38.4°N, 113.01°W
Report Text: KMLF 182352Z AUTO 22003KT 10SM CLR 06/M03 A3012 RMK AO2 SLP200 T00611028 10078 20044 53006 TSNO
Loading
Personal Weather Stations






























Interactive Weather Map New forecast layout! Learn more

10-Day Weather Forecast

Advertisements
Track Severe Weather on mobile